Terminal Aerodrome Forecast
Issued by NWS

Home | Current Version | Previous Version | Text Only | Print | Product List | Glossary On
Versions: 1 2 3 4 5 6 7 8 9 10 11 12 13 14 15 16
000
FTAK31 PAFA 301402 AAC
TAFAFA
TAF AMD
PAFA 301402Z 3014/3118 03005KT 2SM -SN BKN015
      TEMPO 3014/3016 3/4SM -SN OVC010
     FM301600 00000KT 5SM -SN BKN025
     FM301800 00000KT P6SM SCT025 BKN040
     FM302000 00000KT P6SM SCT050 OVC250=

USA.gov is the U.S. government's official web portal to all federal, state and local government web resources and services.